Time;durP1;ratioP1;P1;durP2;ratioP2;P2;SDS_P1;SDS_P2;PMS_P1;PMS_P2;Temp;Humidity;BMP_temperature;BMP_pressure;BME280_temperature;BME280_humidity;BME280_pressure;Samples;Min_cycle;Max_cycle;Signal;HPM_P1;HPM_P2
2021/11/06 00:06:20;;;;;;;12.00;10.60;;;;;;;6.15;78.80;100186.64;477185;1189;142533;-65
2021/11/06 00:16:23;;;;;;;12.60;11.30;;;;;;;6.15;78.78;100186.64;473464;1190;141926;-66
2021/11/06 00:26:26;;;;;;;11.70;10.20;;;;;;;6.13;78.82;100193.14;477738;1190;141522;-62
2021/11/06 00:36:29;;;;;;;11.10;10.00;;;;;;;6.16;78.85;100192.51;469047;1189;205381;-67
2021/11/06 00:46:33;;;;;;;12.30;9.90;;;;;;;6.15;78.83;100196.70;466655;1189;142091;-65
2021/11/06 00:56:36;;;;;;;14.30;10.30;;;;;;;6.14;78.87;100198.46;463653;1189;141986;-63
2021/11/06 01:06:39;;;;;;;15.60;10.90;;;;;;;6.16;78.98;100196.52;462972;1190;143062;-65
2021/11/06 01:16:42;;;;;;;11.70;10.50;;;;;;;6.13;78.96;100196.10;477873;1189;142592;-65
2021/11/06 01:26:45;;;;;;;11.00;9.90;;;;;;;6.17;79.05;100195.93;474217;1177;141577;-66
2021/11/06 01:36:49;;;;;;;12.50;10.90;;;;;;;6.22;78.93;100202.88;461072;1190;141511;-64
2021/11/06 01:46:52;;;;;;;12.10;10.80;;;;;;;6.16;78.93;100209.70;475009;1190;141936;-65
2021/11/06 01:56:56;;;;;;;13.50;12.10;;;;;;;6.12;79.00;100210.21;477038;1190;143479;-64
2021/11/06 02:06:59;;;;;;;16.60;10.50;;;;;;;6.09;79.05;100226.98;477769;1189;142438;-65
2021/11/06 02:17:03;;;;;;;10.20;9.20;;;;;;;6.14;79.02;100234.81;471613;1189;144707;-64
2021/11/06 02:27:06;;;;;;;9.40;8.50;;;;;;;6.22;78.79;100235.76;476545;1189;141611;-65
2021/11/06 02:37:10;;;;;;;12.70;9.60;;;;;;;6.27;78.83;100230.55;469114;1190;144591;-65
2021/11/06 02:47:13;;;;;;;12.20;10.90;;;;;;;6.32;78.82;100232.62;478397;1189;142080;-65
2021/11/06 02:57:17;;;;;;;10.70;8.90;;;;;;;6.23;78.79;100238.50;475567;1189;142384;-65
2021/11/06 03:07:20;;;;;;;13.30;11.10;;;;;;;6.15;78.71;100233.92;478688;1189;141414;-65
2021/11/06 03:17:24;;;;;;;11.80;9.40;;;;;;;6.05;78.76;100241.55;476497;1189;142016;-63
2021/11/06 03:27:32;;;;;;;13.00;11.30;;;;;;;5.87;78.84;100245.81;478743;1189;141456;-63
2021/11/06 03:37:35;;;;;;;14.70;11.60;;;;;;;5.72;79.14;100248.39;468699;1189;197674;-63
2021/11/06 03:47:38;;;;;;;12.00;10.20;;;;;;;5.64;79.17;100259.56;461435;1176;141514;-63
2021/11/06 03:57:42;;;;;;;11.20;10.00;;;;;;;5.63;79.33;100266.38;467285;1190;142091;-63
2021/11/06 04:07:45;;;;;;;11.40;9.30;;;;;;;5.49;79.41;100264.73;461000;1189;141615;-63
2021/11/06 04:17:48;;;;;;;16.10;10.50;;;;;;;5.32;79.44;100261.48;461461;1190;141586;-63
2021/11/06 04:27:51;;;;;;;12.60;9.90;;;;;;;5.14;79.62;100262.36;463959;1189;141623;-62
2021/11/06 04:37:54;;;;;;;11.90;9.60;;;;;;;5.07;80.05;100265.36;463933;1187;141804;-62
2021/11/06 04:47:57;;;;;;;12.70;9.50;;;;;;;5.02;79.79;100267.74;468117;1189;141374;-63
2021/11/06 04:58:01;;;;;;;12.70;9.30;;;;;;;4.95;80.14;100275.06;467387;1189;140723;-62
2021/11/06 05:08:05;;;;;;;12.80;9.20;;;;;;;4.98;80.28;100283.84;470951;1190;141463;-61
2021/11/06 05:18:10;;;;;;;12.60;11.20;;;;;;;5.02;80.31;100284.05;462975;1189;141415;-63
2021/11/06 05:28:14;;;;;;;12.00;10.50;;;;;;;5.09;80.27;100291.17;464063;1190;141339;-62
2021/11/06 05:38:18;;;;;;;13.70;9.30;;;;;;;5.22;80.33;100290.95;472549;1189;142905;-63
2021/11/06 05:48:22;;;;;;;12.60;9.80;;;;;;;5.34;79.96;100299.23;470273;1189;140898;-63
2021/11/06 05:58:26;;;;;;;11.20;9.00;;;;;;;5.38;79.74;100312.16;472671;1189;141245;-63
2021/11/06 06:08:29;;;;;;;11.60;10.00;;;;;;;5.40;79.75;100314.70;472742;1190;141478;-61
2021/11/06 06:18:32;;;;;;;11.20;9.00;;;;;;;5.32;79.61;100330.58;465333;1189;153585;-61
2021/11/06 06:28:36;;;;;;;13.40;9.80;;;;;;;5.40;79.53;100339.02;467689;1190;140538;-66
2021/11/06 06:38:40;;;;;;;11.70;10.50;;;;;;;5.70;79.42;100346.40;471094;1189;141294;-62
2021/11/06 06:48:44;;;;;;;11.90;9.50;;;;;;;6.04;78.89;100341.52;473210;1189;140683;-63
2021/11/06 06:58:48;;;;;;;10.10;8.50;;;;;;;7.27;77.96;100338.75;477780;1190;141807;-63
2021/11/06 07:08:51;;;;;;;10.90;8.30;;;;;;;8.22;76.24;100343.90;476930;1189;142867;-63
2021/11/06 07:18:54;;;;;;;10.30;8.30;;;;;;;8.03;75.34;100350.94;468459;1189;145167;-62
2021/11/06 07:28:58;;;;;;;11.70;9.10;;;;;;;7.66;75.49;100362.53;477812;1189;141697;-63
2021/11/06 07:39:01;;;;;;;9.50;8.00;;;;;;;7.71;75.46;100368.10;469214;1190;147412;-62
2021/11/06 07:49:06;;;;;;;10.60;8.30;;;;;;;8.26;75.11;100368.48;473832;1190;141537;-63
2021/11/06 07:59:09;;;;;;;10.20;7.70;;;;;;;9.18;73.69;100368.71;472554;1189;140712;-62
2021/11/06 08:09:13;;;;;;;13.30;8.10;;;;;;;10.81;72.00;100359.52;477017;1190;141806;-64
2021/11/06 08:19:17;;;;;;;8.60;6.40;;;;;;;12.21;69.13;100360.77;475441;1189;141258;-63
2021/11/06 08:29:20;;;;;;;11.90;7.00;;;;;;;14.91;65.74;100359.87;477747;1189;142601;-63
2021/11/06 08:39:23;;;;;;;5.00;4.20;;;;;;;17.67;61.41;100374.34;477110;1189;141345;-64
2021/11/06 08:49:27;;;;;;;8.80;4.70;;;;;;;18.88;57.01;100376.98;477898;1190;140631;-64
2021/11/06 08:59:33;;;;;;;5.10;4.20;;;;;;;18.90;54.58;100378.32;476169;1190;143304;-63
2021/11/06 09:09:37;;;;;;;10.70;5.20;;;;;;;17.24;54.13;100384.26;477718;1190;140754;-64
2021/11/06 09:19:41;;;;;;;6.60;4.60;;;;;;;14.12;56.55;100383.86;465158;1190;140100;-62
2021/11/06 09:29:46;;;;;;;8.10;4.60;;;;;;;12.87;58.59;100381.44;467117;1189;141368;-62
2021/11/06 09:39:49;;;;;;;5.70;3.80;;;;;;;11.81;59.75;100389.10;476827;1184;141593;-63
2021/11/06 09:49:54;;;;;;;9.70;4.50;;;;;;;11.39;61.08;100384.06;477843;1189;141173;-63
2021/11/06 09:59:57;;;;;;;8.40;4.50;;;;;;;11.00;61.83;100379.31;471870;1189;144774;-63
2021/11/06 10:10:04;;;;;;;8.30;4.70;;;;;;;10.63;62.58;100386.82;476250;1189;141188;-62
2021/11/06 10:20:30;;;;;;;6.00;3.40;;;;;;;10.09;63.26;100386.48;461174;1190;140612;-63
2021/11/06 10:30:36;;;;;;;6.00;3.40;;;;;;;10.10;64.12;100376.11;459024;1189;10001336;-63
2021/11/06 10:40:43;;;;;;;9.80;6.00;;;;;;;10.36;64.35;100376.27;473652;1189;143556;-62
2021/11/06 10:50:51;;;;;;;7.10;4.50;;;;;;;10.60;64.14;100375.39;472165;1189;142027;-59
2021/11/06 11:00:58;;;;;;;10.10;5.60;;;;;;;10.72;64.22;100372.02;474401;1189;141391;-63
2021/11/06 11:11:06;;;;;;;8.80;5.40;;;;;;;10.55;63.90;100357.77;470550;1189;140818;-63
2021/11/06 11:21:14;;;;;;;5.60;4.20;;;;;;;10.12;64.49;100351.52;468006;1183;141214;-63
2021/11/06 11:31:18;;;;;;;6.60;4.30;;;;;;;10.14;64.76;100346.00;472344;1189;141909;-60
2021/11/06 11:41:44;;;;;;;7.10;4.10;;;;;;;10.18;64.54;100344.60;471409;1189;140877;-61
2021/11/06 11:51:47;;;;;;;5.60;3.30;;;;;;;9.95;64.81;100345.36;477897;1189;142205;-61
2021/11/06 12:02:10;;;;;;;4.80;3.50;;;;;;;10.23;64.92;100341.70;474685;1189;141547;-59
2021/11/06 12:12:13;;;;;;;4.30;2.70;;;;;;;10.14;64.75;100335.00;460653;1189;142202;-59
2021/11/06 12:22:19;;;;;;;4.70;2.30;;;;;;;10.22;64.83;100335.45;474702;1183;141531;-62
2021/11/06 12:32:29;;;;;;;5.20;3.00;;;;;;;10.38;64.67;100323.11;478310;1189;141740;-61
2021/11/06 12:42:32;;;;;;;6.60;3.20;;;;;;;10.22;64.71;100334.08;472891;1189;141428;-60
2021/11/06 12:52:42;;;;;;;5.30;3.50;;;;;;;10.01;65.03;100331.98;476786;1189;140909;-62
2021/11/06 13:02:49;;;;;;;2.60;1.60;;;;;;;9.93;64.94;100325.52;477012;1189;145269;-61
2021/11/06 13:13:06;;;;;;;4.90;2.20;;;;;;;9.81;64.60;100330.48;465463;1189;141885;-60
2021/11/06 13:23:10;;;;;;;3.30;2.50;;;;;;;9.70;64.67;100339.05;467270;1189;140153;-60
2021/11/06 13:33:17;;;;;;;4.40;2.30;;;;;;;9.63;64.68;100342.37;476861;1189;143042;-61
2021/11/06 13:43:24;;;;;;;5.70;2.00;;;;;;;9.56;64.72;100335.71;472544;1189;140699;-63
2021/11/06 13:53:33;;;;;;;2.80;1.90;;;;;;;9.43;64.91;100340.83;464725;1190;141768;-61
2021/11/06 14:03:37;;;;;;;3.10;2.10;;;;;;;9.28;65.01;100342.58;462513;1189;141600;-62
2021/11/06 14:13:52;;;;;;;4.60;2.10;;;;;;;9.14;64.93;100335.54;473756;1189;140924;-63
2021/11/06 14:24:06;;;;;;;3.60;2.90;;;;;;;9.05;65.47;100331.73;465851;1187;142120;-62
2021/11/06 14:34:20;;;;;;;8.30;3.30;;;;;;;9.00;65.78;100331.82;463581;1189;10002516;-60
2021/11/06 14:44:29;;;;;;;8.70;4.10;;;;;;;8.92;66.14;100325.71;462187;1190;141814;-62
2021/11/06 14:54:56;;;;;;;7.00;4.20;;;;;;;8.82;66.50;100324.41;465629;1190;140963;-62
2021/11/06 15:05:00;;;;;;;8.00;4.70;;;;;;;8.69;67.02;100319.57;461885;1190;141387;-63
2021/11/06 15:15:06;;;;;;;5.20;4.00;;;;;;;8.54;67.05;100316.59;460923;1189;141304;-64
2021/11/06 15:25:10;;;;;;;9.10;5.60;;;;;;;8.36;67.37;100313.64;477787;1189;141404;-64
2021/11/06 15:35:16;;;;;;;12.10;6.70;;;;;;;8.25;67.62;100308.55;477685;1189;142060;-64
2021/11/06 15:45:20;;;;;;;14.30;6.70;;;;;;;7.93;67.69;100310.23;477642;1189;141815;-66
2021/11/06 15:55:25;;;;;;;13.30;6.00;;;;;;;7.58;67.93;100311.45;478536;1189;141895;-71
2021/11/06 16:05:29;;;;;;;11.80;6.80;;;;;;;7.12;68.23;100315.84;476686;1189;141118;-71
2021/11/06 16:15:36;;;;;;;13.00;9.00;;;;;;;6.77;68.86;100324.61;473972;1189;141148;-70
2021/11/06 16:25:39;;;;;;;36.00;20.60;;;;;;;6.41;69.40;100327.60;476448;1189;140727;-69
2021/11/06 16:35:42;;;;;;;23.30;14.30;;;;;;;6.29;70.09;100320.71;455149;1190;10001532;-62
2021/11/06 16:45:47;;;;;;;21.00;11.00;;;;;;;6.45;70.41;100319.64;471525;1189;141585;-63
2021/11/06 16:55:51;;;;;;;22.90;12.70;;;;;;;6.65;70.28;100314.41;474416;1189;200791;-63
2021/11/06 17:06:01;;;;;;;26.90;14.10;;;;;;;6.86;70.15;100309.84;463018;1189;141832;-62
2021/11/06 17:16:05;;;;;;;34.80;17.50;;;;;;;7.03;69.97;100300.15;461024;1190;141749;-63
2021/11/06 17:26:15;;;;;;;24.90;13.80;;;;;;;7.11;69.52;100287.65;470672;1189;142054;-63
2021/11/06 17:36:18;;;;;;;17.40;8.90;;;;;;;7.12;69.40;100286.20;464027;1189;146197;-62
2021/11/06 17:46:21;;;;;;;18.60;8.30;;;;;;;7.19;69.07;100285.46;467161;1189;140552;-62
2021/11/06 17:56:25;;;;;;;13.30;7.60;;;;;;;7.23;68.87;100275.20;462935;1190;141455;-61
2021/11/06 18:06:29;;;;;;;14.50;7.50;;;;;;;7.22;68.60;100276.81;471644;1189;141909;-63
2021/11/06 18:16:32;;;;;;;26.30;13.60;;;;;;;7.22;68.65;100273.48;463735;1190;141978;-63
2021/11/06 18:26:37;;;;;;;17.90;10.20;;;;;;;7.30;68.59;100268.29;473114;1189;142363;-63
2021/11/06 18:36:40;;;;;;;10.00;6.50;;;;;;;7.34;68.49;100254.54;471585;1189;141228;-63
2021/11/06 18:46:50;;;;;;;15.00;8.40;;;;;;;7.36;68.49;100256.73;470071;1189;143112;-63
2021/11/06 18:56:53;;;;;;;21.10;10.50;;;;;;;7.37;68.38;100250.09;466388;1188;140977;-62
2021/11/06 19:06:56;;;;;;;12.60;8.50;;;;;;;7.39;68.34;100249.98;464715;1189;141880;-65
2021/11/06 19:17:00;;;;;;;12.80;8.90;;;;;;;7.40;68.36;100248.56;472854;1189;142249;-59
2021/11/06 19:27:09;;;;;;;13.80;8.50;;;;;;;7.44;68.18;100248.23;472248;1183;141253;-60
2021/11/06 19:37:14;;;;;;;15.10;9.30;;;;;;;7.52;67.80;100244.11;463026;1190;141893;-61
2021/11/06 19:47:17;;;;;;;12.60;7.80;;;;;;;7.48;67.54;100245.98;463901;1190;141380;-60
2021/11/06 19:57:21;;;;;;;13.30;8.10;;;;;;;7.40;67.24;100242.46;461966;1189;146276;-62
2021/11/06 20:07:24;;;;;;;10.20;7.10;;;;;;;7.41;67.24;100232.30;468237;1185;141315;-61
2021/11/06 20:17:28;;;;;;;10.30;7.60;;;;;;;7.34;66.95;100228.41;470840;1189;141084;-58
2021/11/06 20:27:31;;;;;;;11.20;8.00;;;;;;;7.33;66.90;100221.52;467737;1189;141927;-62
2021/11/06 20:37:35;;;;;;;12.90;9.00;;;;;;;7.33;66.96;100203.20;468849;1189;142379;-62
2021/11/06 20:47:39;;;;;;;11.30;8.20;;;;;;;7.20;66.66;100198.33;462499;1189;141746;-62
2021/11/06 20:57:43;;;;;;;13.90;9.30;;;;;;;7.08;67.01;100186.29;472399;1189;140812;-63
2021/11/06 21:07:46;;;;;;;10.70;9.50;;;;;;;6.84;66.91;100176.73;475467;1189;145108;-62
2021/11/06 21:28:12;;;;;;;13.00;9.30;;;;;;;6.08;67.67;100154.23;465329;1190;141022;-62
2021/11/06 21:38:20;;;;;;;12.90;9.70;;;;;;;5.79;68.19;100140.41;477961;1182;141213;-62
2021/11/06 21:48:23;;;;;;;14.00;11.20;;;;;;;5.53;68.77;100125.50;461010;1189;145479;-62
2021/11/06 21:58:27;;;;;;;15.70;10.70;;;;;;;5.27;69.23;100119.60;464298;1182;142103;-62
2021/11/06 22:08:31;;;;;;;13.40;11.10;;;;;;;5.09;69.71;100109.27;464378;1181;141909;-60
2021/11/06 22:18:34;;;;;;;15.40;13.00;;;;;;;4.90;70.03;100100.16;473086;1189;141896;-61
2021/11/06 22:28:38;;;;;;;16.50;12.70;;;;;;;4.76;70.46;100087.41;466147;1189;141051;-61
2021/11/06 22:38:44;;;;;;;15.70;13.00;;;;;;;4.64;70.85;100078.59;476591;1189;142239;-61
2021/11/06 22:48:50;;;;;;;16.90;12.30;;;;;;;4.53;71.20;100066.98;478728;1189;143770;-62
2021/11/06 22:58:53;;;;;;;14.90;12.30;;;;;;;4.41;71.28;100056.27;477139;1189;141247;-62
2021/11/06 23:08:57;;;;;;;15.70;12.40;;;;;;;4.26;71.60;100064.86;467545;1189;142089;-62
2021/11/06 23:19:01;;;;;;;18.80;12.80;;;;;;;4.07;71.92;100055.89;464410;1190;141490;-62
2021/11/06 23:29:05;;;;;;;15.70;12.70;;;;;;;3.91;72.27;100044.77;471907;1189;141246;-60
2021/11/06 23:39:09;;;;;;;21.00;14.10;;;;;;;3.74;72.46;100027.40;474054;1189;142486;-61
2021/11/06 23:49:13;;;;;;;17.50;13.00;;;;;;;3.58;72.84;100013.30;468813;1189;141415;-61
2021/11/06 23:59:20;;;;;;;16.60;12.70;;;;;;;3.47;72.96;100001.31;469844;1189;10001781;-60
